Большое Савино

Карта отелей и гостиниц, располагающихся рядом с аэропортом Большое Савино :

Большое Савино
Пермь
Пермский край 57° 54' 52.2" N, 56° 1' 16.9212" E
Код аэродрома ИКАО
USPP
Код аэродрома RU
УСПП
Координаты
N57.91450° E056.02137°
Превышение над уровнем моря
123
Основная полоса
03/21
Курс магнитный
030,8/210,8
Длина основной ВПП
3210
Ширина основной ВПП
49
Покрытие основной ВПП
Твёрдое (цементобетон)
Освещение ВПП
Постоянное
Тип: 
Аэродром
Класс аэродрома: 
Международный
Принадлежность: 
ГА
Статус: 
Действующий
Сайт: 
http://www.aviaperm.ru/
Страна: 
Россия
Регион: 
Пермский край
Город: 
Пермь
Дополнительная информация: 
Оператор: МО РФ. Совместного базирования (ФАВТ и МО). Нкр.=(600)м. Военный индекс: XSPP / ЬСПП.
Погода: 

Авиационная погода в Перми

Регион: 
Погода METAR: 
USPP 262030Z 12005MPS CAVOK M20/M25 Q1014 R21/090060 NOSIG RMK QFE750
Время наблюдения
2021-02-26T20:30:00Z
Температура C
-20.0
Точка росы
-25.0
Направление ветра
120
Скорость ветра (узлы)
10
Метео видимость
6.21
Явления погоды
Условия полета
VFR
Аэропорт подробнее: 

Найти трансфер

С помощью этой формы Вы можете найти трансфер из аэропорта Большое Савино в город, аэропорт или вокзал:

Карта места

Javascript is required to view this map.

Погода в аэропортах:

Авиационная погода в аэропорту Бесовец

Регион: 
Погода METAR: 
ULPB 262100Z AUTO 00000MPS 2400 BR ///002/// M02/M02 Q1002 RMK QBB080 QFE748/0998
Время наблюдения
2021-02-26T21:00:00Z
Температура C
-2.0
Точка росы
-2.0
Направление ветра
0
Скорость ветра (узлы)
0
Метео видимость
1.49
Явления погоды
BR
Условия полета
Аэропорт подробнее: 

Авиационная погода в Хомутово

Регион: 
Погода METAR: 
UHSS 262030Z 30001MPS 9999 -SHSN SCT013CB M18/M20 Q1025 R01/810365 NOSIG RMK MT OBSC QFE767/1023
Время наблюдения
2021-02-26T20:30:00Z
Температура C
-18.0
Точка росы
-20.0
Направление ветра
300
Скорость ветра (узлы)
2
Метео видимость
6.21
Явления погоды
-SHSN
Условия полета
VFR
Аэропорт подробнее: 

Авиационная погода в Ярославле

Регион: 
Погода METAR: 
UUDL 262030Z 27006MPS 9999 -RA OVC010 01/00 Q0993 R23/////// NOSIG RMK QFE737
Время наблюдения
2021-02-26T20:30:00Z
Температура C
1.0
Точка росы
0.0
Направление ветра
270
Скорость ветра (узлы)
12
Метео видимость
6.21
Явления погоды
-RA
Условия полета
MVFR
Аэропорт подробнее: 

Авиационная погода в Алматы

Регион: 
Погода METAR: 
UAAA 262030Z 26002MPS 3000 BR FU SCT100 BKN200 M13/M17 Q1026 R23R/CLRD65 R23L/91//60 NOSIG
Время наблюдения
2021-02-26T20:30:00Z
Температура C
-13.0
Точка росы
-17.0
Направление ветра
260
Скорость ветра (узлы)
4
Метео видимость
1.86
Явления погоды
BR FU
Условия полета
IFR
Аэропорт подробнее: